Aérodrome :
LOGIN :

S'inscrire | Disclaimer

   EN    FR    IT 

 










Légende :    VFR   VFR Marginal   IFR   IFR Intensif   IFR Très Intensif
Visi : 
Plafond : 
>= 8 km
>= 3000ft
5 à 8 km
1000 à 3000 ft
1500m à 5 km
500 à 1000 ft
800 à 1500m
200 à 500 ft
< 800m
< 200 ft
Symboles :   Orages  Brouillard  Fortes neiges  Fortes précipitations  Vent > 20 kt
SIGMETs :   Divers  Orages  Givrage  Turbulence  Onde Orograph.  Cendres Volcan.







- Altitude de l'aérodrome : 56 ft


LPOV - Ovar Air Base

DERNIER METAR :
  • 270800Z 28004KT 240V320 9999 FEW004 BKN015 BKN030 18/17 Q1017

METARs EXPIRÉS :
  • 270700Z 27003KT 240V320 9999 FEW004 BKN015 17/17 Q1016
  • 270600Z VRB01KT 9999 FEW004 SCT030 17/17 Q1016
  • 270500Z VRB01KT 9999 FEW006 BKN030 17/16 Q1016

TAF AMD TAF LPOV
Valide du 27 à 08h jusqu'au 28 à 06h UTC


270805Z 2708/2806 VRB02KT 9999 FEW005 BKN015
BECMG 2708/2711 27008KT SCT030
BECMG 2718/2721 01005KT
PROB40 2803/2806 VRB02KT 3000 BR SCT002
Pas de NOTAMs connus pour ce terrain.



MET'MAP, la Météo Aéronautique d'un coup d'oeil ! - Copyright ORBIFLY Décembre 2007 - Disclaimer

ORBIFLY MET'MAP TEAM :

Programmation & Développement : Alexandra Zaïnal
Conception & Développement : Baudouin d'Aumeries
Co-Programmation & Développement : Marc-Olivier Méhu
Soutien technique & logistique : Manuel Goepfert

Contact : metmap@orbifly.com




SOURCES & CREDITS :

   NOAA